Morant Bay, Jamaica
Current Conditions -  °F | °C
As of 4:00 AM on Sunday 23 Nov 2014 (Local Time) from MKJP Reporting Station
Few Clouds Few Clouds  
Wind Chill: 81°   Ceiling: Unl
Heat Index: 84°   Visibility: 6mi
Dew Point: 70°   Wind: 12mph
Humidity: 70%   Direction: 360°N
Pressure: 29.88"   Gusts: NA
Location:  17.87°N, 76.39°W
Report Text: MKJP 230900Z 36010KT 9999 FEW024 27/21 Q1012
Loading
Personal Weather Stations






























Interactive Weather Map New forecast layout! Learn more

10-Day Weather Forecast

Advertisements
Track Severe Weather on mobile